sensor_id;sensor_type;location;lat;lon;timestamp;pressure;altitude;pressure_sealevel;temperature;humidity
2761;BME280;15420;48.636;9.798;2023-01-30T00:01:16;97257.53;;;-1.16;95.33
2761;BME280;15420;48.636;9.798;2023-01-30T00:03:42;97257.97;;;-1.10;95.01
2761;BME280;15420;48.636;9.798;2023-01-30T00:06:09;97256.66;;;-1.05;94.94
2761;BME280;15420;48.636;9.798;2023-01-30T00:08:37;97244.09;;;-1.04;94.88
2761;BME280;15420;48.636;9.798;2023-01-30T00:11:09;97240.81;;;-1.03;94.94
2761;BME280;15420;48.636;9.798;2023-01-30T00:13:38;97246.75;;;-1.02;94.48
2761;BME280;15420;48.636;9.798;2023-01-30T00:16:05;97248.72;;;-0.98;94.49
2761;BME280;15420;48.636;9.798;2023-01-30T00:18:32;97252.69;;;-1.02;94.35
2761;BME280;15420;48.636;9.798;2023-01-30T00:20:59;97231.47;;;-1.04;94.41
2761;BME280;15420;48.636;9.798;2023-01-30T00:23:27;97230.91;;;-1.00;94.27
2761;BME280;15420;48.636;9.798;2023-01-30T00:25:57;97231.78;;;-0.99;94.25
2761;BME280;15420;48.636;9.798;2023-01-30T00:28:26;97223.44;;;-0.98;94.15
2761;BME280;15420;48.636;9.798;2023-01-30T00:30:53;97228.50;;;-0.98;93.92
2761;BME280;15420;48.636;9.798;2023-01-30T00:33:22;97223.44;;;-0.98;94.02
2761;BME280;15420;48.636;9.798;2023-01-30T00:35:50;97207.28;;;-1.00;93.85
2761;BME280;15420;48.636;9.798;2023-01-30T00:38:21;97211.47;;;-1.01;93.77
2761;BME280;15420;48.636;9.798;2023-01-30T00:40:52;97218.94;;;-1.02;93.54
2761;BME280;15420;48.636;9.798;2023-01-30T00:43:21;97214.66;;;-1.03;93.29
2761;BME280;15420;48.636;9.798;2023-01-30T00:46:23;97204.47;;;-1.05;93.23
2761;BME280;15420;48.636;9.798;2023-01-30T00:49:09;97196.75;;;-1.06;93.37
2761;BME280;15420;48.636;9.798;2023-01-30T00:51:35;97190.84;;;-1.07;93.35
2761;BME280;15420;48.636;9.798;2023-01-30T00:54:04;97192.59;;;-1.06;93.74
2761;BME280;15420;48.636;9.798;2023-01-30T00:56:30;97180.72;;;-1.07;93.49
2761;BME280;15420;48.636;9.798;2023-01-30T00:58:56;97178.97;;;-1.08;93.48
2761;BME280;15420;48.636;9.798;2023-01-30T01:01:24;97182.25;;;-1.09;93.47
2761;BME280;15420;48.636;9.798;2023-01-30T01:03:50;97172.03;;;-1.10;93.50
2761;BME280;15420;48.636;9.798;2023-01-30T01:06:19;97180.50;;;-1.10;93.48
2761;BME280;15420;48.636;9.798;2023-01-30T01:08:45;97179.63;;;-1.10;93.26
2761;BME280;15420;48.636;9.798;2023-01-30T01:11:11;97188.84;;;-1.11;93.69
2761;BME280;15420;48.636;9.798;2023-01-30T01:13:50;97194.78;;;-1.10;93.70
2761;BME280;15420;48.636;9.798;2023-01-30T01:16:21;97196.44;;;-1.11;93.69
2761;BME280;15420;48.636;9.798;2023-01-30T01:18:47;97197.22;;;-1.12;93.80
2761;BME280;15420;48.636;9.798;2023-01-30T01:21:14;97209.97;;;-1.10;93.46
2761;BME280;15420;48.636;9.798;2023-01-30T01:23:40;97199.72;;;-1.12;93.67
2761;BME280;15420;48.636;9.798;2023-01-30T01:26:08;97207.31;;;-1.12;93.52
2761;BME280;15420;48.636;9.798;2023-01-30T01:28:37;97218.19;;;-1.13;93.80
2761;BME280;15420;48.636;9.798;2023-01-30T01:31:13;97226.00;;;-1.10;93.64
2761;BME280;15420;48.636;9.798;2023-01-30T01:33:40;97227.66;;;-1.10;93.78
2761;BME280;15420;48.636;9.798;2023-01-30T01:36:07;97237.75;;;-1.10;93.90
2761;BME280;15420;48.636;9.798;2023-01-30T01:38:33;97244.56;;;-1.09;94.04
2761;BME280;15420;48.636;9.798;2023-01-30T01:41:00;97249.75;;;-1.08;93.89
2761;BME280;15420;48.636;9.798;2023-01-30T01:43:33;97252.94;;;-1.10;93.48
2761;BME280;15420;48.636;9.798;2023-01-30T01:46:21;97257.75;;;-1.13;94.03
2761;BME280;15420;48.636;9.798;2023-01-30T01:48:55;97268.06;;;-1.22;94.61
2761;BME280;15420;48.636;9.798;2023-01-30T01:51:39;97266.09;;;-1.26;95.14
2761;BME280;15420;48.636;9.798;2023-01-30T01:54:14;97265.97;;;-1.27;94.99
2761;BME280;15420;48.636;9.798;2023-01-30T01:56:44;97262.34;;;-1.31;95.27
2761;BME280;15420;48.636;9.798;2023-01-30T01:59:36;97270.81;;;-1.30;95.52
2761;BME280;15420;48.636;9.798;2023-01-30T02:02:08;97263.13;;;-1.32;95.62
2761;BME280;15420;48.636;9.798;2023-01-30T02:04:38;97267.16;;;-1.34;95.45
2761;BME280;15420;48.636;9.798;2023-01-30T02:07:30;97270.81;;;-1.30;95.86
2761;BME280;15420;48.636;9.798;2023-01-30T02:10:01;97248.06;;;-1.30;95.95
2761;BME280;15420;48.636;9.798;2023-01-30T02:12:30;97236.41;;;-1.28;96.20
2761;BME280;15420;48.636;9.798;2023-01-30T02:14:57;97227.31;;;-1.26;96.33
2761;BME280;15420;48.636;9.798;2023-01-30T02:17:27;97226.31;;;-1.28;96.47
2761;BME280;15420;48.636;9.798;2023-01-30T02:30:55;97255.00;;;-1.28;97.13
2761;BME280;15420;48.636;9.798;2023-01-30T02:36:09;97239.19;;;-1.25;98.04
2761;BME280;15420;48.636;9.798;2023-01-30T02:44:54;97235.34;;;-1.20;98.42
2761;BME280;15420;48.636;9.798;2023-01-30T02:50:24;97231.50;;;-1.15;98.98
2761;BME280;15420;48.636;9.798;2023-01-30T02:52:52;97222.47;;;-1.12;99.35
2761;BME280;15420;48.636;9.798;2023-01-30T02:55:21;97216.66;;;-1.11;99.34
2761;BME280;15420;48.636;9.798;2023-01-30T02:57:53;97205.78;;;-1.10;99.36
2761;BME280;15420;48.636;9.798;2023-01-30T03:00:55;97195.88;;;-1.07;99.60
2761;BME280;15420;48.636;9.798;2023-01-30T03:14:51;97201.94;;;-1.05;100.00
2761;BME280;15420;48.636;9.798;2023-01-30T03:17:21;97221.34;;;-1.04;100.00
2761;BME280;15420;48.636;9.798;2023-01-30T03:19:48;97210.59;;;-1.01;100.00
2761;BME280;15420;48.636;9.798;2023-01-30T03:22:15;97225.97;;;-0.98;100.00
2761;BME280;15420;48.636;9.798;2023-01-30T03:24:45;97220.16;;;-0.97;100.00
2761;BME280;15420;48.636;9.798;2023-01-30T03:27:12;97217.72;;;-0.95;99.72
2761;BME280;15420;48.636;9.798;2023-01-30T03:29:41;97201.91;;;-0.93;100.00
2761;BME280;15420;48.636;9.798;2023-01-30T03:32:07;97182.53;;;-0.92;100.00
2761;BME280;15420;48.636;9.798;2023-01-30T03:34:33;97183.53;;;-0.90;100.00
2761;BME280;15420;48.636;9.798;2023-01-30T03:36:59;97167.47;;;-0.91;100.00
2761;BME280;15420;48.636;9.798;2023-01-30T03:39:26;97166.16;;;-0.86;100.00
2761;BME280;15420;48.636;9.798;2023-01-30T03:41:53;97166.47;;;-0.81;100.00
2761;BME280;15420;48.636;9.798;2023-01-30T03:44:19;97164.94;;;-0.79;99.89
2761;BME280;15420;48.636;9.798;2023-01-30T03:46:45;97143.81;;;-0.80;99.44
2761;BME280;15420;48.636;9.798;2023-01-30T03:49:14;97144.03;;;-0.77;99.46
2761;BME280;15420;48.636;9.798;2023-01-30T03:51:40;97113.78;;;-0.75;99.28
2761;BME280;15420;48.636;9.798;2023-01-30T03:54:08;97106.09;;;-0.77;99.27
2761;BME280;15420;48.636;9.798;2023-01-30T03:56:37;97091.69;;;-0.78;99.58
2761;BME280;15420;48.636;9.798;2023-01-30T03:59:03;97089.28;;;-0.76;99.68
2761;BME280;15420;48.636;9.798;2023-01-30T04:01:29;97087.63;;;-0.76;100.00
2761;BME280;15420;48.636;9.798;2023-01-30T04:03:58;97091.81;;;-0.76;100.00
2761;BME280;15420;48.636;9.798;2023-01-30T04:06:24;97118.97;;;-0.74;100.00
2761;BME280;15420;48.636;9.798;2023-01-30T04:08:52;97107.41;;;-0.70;100.00
2761;BME280;15420;48.636;9.798;2023-01-30T04:11:18;97111.69;;;-0.69;100.00
2761;BME280;15420;48.636;9.798;2023-01-30T04:13:45;97109.25;;;-0.68;100.00
2761;BME280;15420;48.636;9.798;2023-01-30T04:16:24;97102.75;;;-0.64;100.00
2761;BME280;15420;48.636;9.798;2023-01-30T04:18:51;97094.41;;;-0.63;100.00
2761;BME280;15420;48.636;9.798;2023-01-30T04:21:17;97092.09;;;-0.60;100.00
2761;BME280;15420;48.636;9.798;2023-01-30T04:23:48;97100.66;;;-0.58;99.94
2761;BME280;15420;48.636;9.798;2023-01-30T04:26:14;97101.84;;;-0.53;100.00
2761;BME280;15420;48.636;9.798;2023-01-30T04:28:41;97110.53;;;-0.49;100.00
2761;BME280;15420;48.636;9.798;2023-01-30T04:31:07;97118.31;;;-0.46;99.99
2761;BME280;15420;48.636;9.798;2023-01-30T04:33:36;97114.34;;;-0.43;100.00
2761;BME280;15420;48.636;9.798;2023-01-30T04:36:05;97120.28;;;-0.42;100.00
2761;BME280;15420;48.636;9.798;2023-01-30T04:38:34;97117.19;;;-0.38;100.00
2761;BME280;15420;48.636;9.798;2023-01-30T04:41:01;97133.34;;;-0.36;100.00
2761;BME280;15420;48.636;9.798;2023-01-30T04:43:28;97132.69;;;-0.34;99.90
2761;BME280;15420;48.636;9.798;2023-01-30T04:46:00;97135.53;;;-0.29;100.00
2761;BME280;15420;48.636;9.798;2023-01-30T04:48:26;97117.81;;;-0.29;100.00
2761;BME280;15420;48.636;9.798;2023-01-30T04:50:56;97112.97;;;-0.26;99.96
2761;BME280;15420;48.636;9.798;2023-01-30T04:53:25;97108.09;;;-0.23;100.00
2761;BME280;15420;48.636;9.798;2023-01-30T04:55:54;97107.44;;;-0.20;100.00
2761;BME280;15420;48.636;9.798;2023-01-30T04:58:22;97108.50;;;-0.17;100.00
2761;BME280;15420;48.636;9.798;2023-01-30T05:00:49;97098.59;;;-0.14;100.00
2761;BME280;15420;48.636;9.798;2023-01-30T05:03:17;97089.44;;;-0.12;100.00
2761;BME280;15420;48.636;9.798;2023-01-30T05:05:47;97089.53;;;-0.10;100.00
2761;BME280;15420;48.636;9.798;2023-01-30T05:08:15;97093.06;;;-0.08;100.00
2761;BME280;15420;48.636;9.798;2023-01-30T05:10:41;97085.56;;;-0.07;100.00
2761;BME280;15420;48.636;9.798;2023-01-30T05:13:07;97098.53;;;-0.02;100.00
2761;BME280;15420;48.636;9.798;2023-01-30T05:15:36;97098.63;;;-0.01;100.00
2761;BME280;15420;48.636;9.798;2023-01-30T05:18:06;97099.69;;;0.03;100.00
2761;BME280;15420;48.636;9.798;2023-01-30T05:20:32;97102.31;;;0.05;99.90
2761;BME280;15420;48.636;9.798;2023-01-30T05:22:58;97104.16;;;0.07;99.87
2761;BME280;15420;48.636;9.798;2023-01-30T05:25:24;97097.53;;;0.09;100.00
2761;BME280;15420;48.636;9.798;2023-01-30T05:27:50;97105.34;;;0.12;100.00
2761;BME280;15420;48.636;9.798;2023-01-30T05:30:19;97106.31;;;0.14;99.70
2761;BME280;15420;48.636;9.798;2023-01-30T05:32:45;97094.63;;;0.16;99.68
2761;BME280;15420;48.636;9.798;2023-01-30T05:35:15;97090.53;;;0.18;99.70
2761;BME280;15420;48.636;9.798;2023-01-30T05:37:42;97080.50;;;0.20;99.57
2761;BME280;15420;48.636;9.798;2023-01-30T05:40:10;97081.59;;;0.23;99.70
2761;BME280;15420;48.636;9.798;2023-01-30T05:42:41;97086.75;;;0.25;99.64
2761;BME280;15420;48.636;9.798;2023-01-30T05:45:10;97085.19;;;0.27;99.63
2761;BME280;15420;48.636;9.798;2023-01-30T05:47:38;97071.84;;;0.29;99.92
2761;BME280;15420;48.636;9.798;2023-01-30T05:50:05;97067.75;;;0.31;99.68
2761;BME280;15420;48.636;9.798;2023-01-30T05:52:33;97059.38;;;0.32;100.00
2761;BME280;15420;48.636;9.798;2023-01-30T05:54:59;97058.72;;;0.35;99.45
2761;BME280;15420;48.636;9.798;2023-01-30T05:57:28;97069.81;;;0.37;99.34
2761;BME280;15420;48.636;9.798;2023-01-30T05:59:54;97064.94;;;0.40;100.00
2761;BME280;15420;48.636;9.798;2023-01-30T06:02:20;97054.81;;;0.40;99.45
2761;BME280;15420;48.636;9.798;2023-01-30T06:04:46;97057.53;;;0.43;100.00
2761;BME280;15420;48.636;9.798;2023-01-30T06:07:16;97055.19;;;0.46;99.81
2761;BME280;15420;48.636;9.798;2023-01-30T06:09:44;97056.94;;;0.47;99.96
2761;BME280;15420;48.636;9.798;2023-01-30T06:12:10;97057.94;;;0.49;99.22
2761;BME280;15420;48.636;9.798;2023-01-30T06:14:39;97049.53;;;0.50;99.31
2761;BME280;15420;48.636;9.798;2023-01-30T06:17:05;97047.97;;;0.52;99.67
2761;BME280;15420;48.636;9.798;2023-01-30T06:19:31;97046.44;;;0.54;99.01
2761;BME280;15420;48.636;9.798;2023-01-30T06:21:58;97046.44;;;0.54;99.34
2761;BME280;15420;48.636;9.798;2023-01-30T06:24:24;97041.44;;;0.56;99.05
2761;BME280;15420;48.636;9.798;2023-01-30T06:26:50;97045.75;;;0.57;98.79
2761;BME280;15420;48.636;9.798;2023-01-30T06:29:16;97036.47;;;0.57;98.87
2761;BME280;15420;48.636;9.798;2023-01-30T06:31:42;97029.84;;;0.59;99.22
2761;BME280;15420;48.636;9.798;2023-01-30T06:34:10;97042.53;;;0.59;98.59
2761;BME280;15420;48.636;9.798;2023-01-30T06:36:36;97042.63;;;0.61;99.28
2761;BME280;15420;48.636;9.798;2023-01-30T06:39:03;97046.03;;;0.61;98.29
2761;BME280;15420;48.636;9.798;2023-01-30T06:41:31;97043.50;;;0.61;99.28
2761;BME280;15420;48.636;9.798;2023-01-30T06:44:00;97038.63;;;0.64;99.13
2761;BME280;15420;48.636;9.798;2023-01-30T06:46:28;97048.75;;;0.64;98.62
2761;BME280;15420;48.636;9.798;2023-01-30T06:48:57;97043.69;;;0.64;98.43
2761;BME280;15420;48.636;9.798;2023-01-30T06:51:23;97057.34;;;0.67;98.47
2761;BME280;15420;48.636;9.798;2023-01-30T06:53:52;97043.00;;;0.67;99.00
2761;BME280;15420;48.636;9.798;2023-01-30T06:56:18;97059.09;;;0.68;98.76
2761;BME280;15420;48.636;9.798;2023-01-30T06:58:44;97047.28;;;0.68;98.90
2761;BME280;15420;48.636;9.798;2023-01-30T07:01:11;97049.94;;;0.70;99.71
2761;BME280;15420;48.636;9.798;2023-01-30T07:03:39;97055.97;;;0.72;98.86
2761;BME280;15420;48.636;9.798;2023-01-30T07:06:05;97067.84;;;0.73;99.44
2761;BME280;15420;48.636;9.798;2023-01-30T07:08:31;97045.22;;;0.76;99.84
2761;BME280;15420;48.636;9.798;2023-01-30T07:10:57;97040.16;;;0.76;99.31
2761;BME280;15420;48.636;9.798;2023-01-30T07:13:26;97038.59;;;0.78;99.11
2761;BME280;15420;48.636;9.798;2023-01-30T07:15:59;97044.66;;;0.80;99.30
2761;BME280;15420;48.636;9.798;2023-01-30T07:18:27;97040.44;;;0.80;100.00
2761;BME280;15420;48.636;9.798;2023-01-30T07:20:53;97039.75;;;0.83;99.28
2761;BME280;15420;48.636;9.798;2023-01-30T07:23:19;97041.63;;;0.85;99.81
2761;BME280;15420;48.636;9.798;2023-01-30T07:25:46;97049.22;;;0.85;99.42
2761;BME280;15420;48.636;9.798;2023-01-30T07:28:12;97046.88;;;0.88;99.29
2761;BME280;15420;48.636;9.798;2023-01-30T07:30:38;97041.91;;;0.90;99.69
2761;BME280;15420;48.636;9.798;2023-01-30T07:33:05;97058.09;;;0.92;99.31
2761;BME280;15420;48.636;9.798;2023-01-30T07:35:33;97055.75;;;0.95;99.25
2761;BME280;15420;48.636;9.798;2023-01-30T07:38:00;97061.78;;;0.97;99.04
2761;BME280;15420;48.636;9.798;2023-01-30T07:40:26;97058.56;;;1.00;99.00
2761;BME280;15420;48.636;9.798;2023-01-30T07:43:00;97062.16;;;1.03;99.84
2761;BME280;15420;48.636;9.798;2023-01-30T07:45:50;97064.84;;;1.06;99.57
2761;BME280;15420;48.636;9.798;2023-01-30T07:48:20;97068.16;;;1.05;99.07
2761;BME280;15420;48.636;9.798;2023-01-30T07:50:46;97058.22;;;1.08;98.85
2761;BME280;15420;48.636;9.798;2023-01-30T07:53:14;97049.03;;;1.10;99.46
2761;BME280;15420;48.636;9.798;2023-01-30T07:55:43;97050.00;;;1.12;99.12
2761;BME280;15420;48.636;9.798;2023-01-30T07:58:17;97037.50;;;1.15;99.39
2761;BME280;15420;48.636;9.798;2023-01-30T08:00:44;97046.88;;;1.16;99.11
2761;BME280;15420;48.636;9.798;2023-01-30T08:03:14;97053.00;;;1.20;98.65
2761;BME280;15420;48.636;9.798;2023-01-30T08:05:45;97046.38;;;1.22;98.69
2761;BME280;15420;48.636;9.798;2023-01-30T08:08:14;97060.91;;;1.24;98.68
2761;BME280;15420;48.636;9.798;2023-01-30T08:10:42;97065.28;;;1.27;99.50
2761;BME280;15420;48.636;9.798;2023-01-30T08:13:08;97050.16;;;1.28;99.08
2761;BME280;15420;48.636;9.798;2023-01-30T08:15:34;97050.34;;;1.31;98.41
2761;BME280;15420;48.636;9.798;2023-01-30T08:18:05;97048.00;;;1.35;99.09
2761;BME280;15420;48.636;9.798;2023-01-30T08:20:32;97040.47;;;1.36;99.13
2761;BME280;15420;48.636;9.798;2023-01-30T08:22:58;97041.44;;;1.38;98.68
2761;BME280;15420;48.636;9.798;2023-01-30T08:25:27;97030.59;;;1.41;98.63
2761;BME280;15420;48.636;9.798;2023-01-30T08:27:54;97033.22;;;1.42;98.25
2761;BME280;15420;48.636;9.798;2023-01-30T08:30:21;97063.78;;;1.44;99.02
2761;BME280;15420;48.636;9.798;2023-01-30T08:32:50;97071.47;;;1.45;98.91
2761;BME280;15420;48.636;9.798;2023-01-30T08:35:21;97080.94;;;1.48;98.32
2761;BME280;15420;48.636;9.798;2023-01-30T08:37:50;97061.59;;;1.50;98.67
2761;BME280;15420;48.636;9.798;2023-01-30T08:40:18;97046.47;;;1.51;98.49
2761;BME280;15420;48.636;9.798;2023-01-30T08:42:46;97061.00;;;1.54;98.50
2761;BME280;15420;48.636;9.798;2023-01-30T08:45:15;97063.63;;;1.55;98.79
2761;BME280;15420;48.636;9.798;2023-01-30T08:47:41;97053.56;;;1.57;98.58
2761;BME280;15420;48.636;9.798;2023-01-30T08:50:10;97047.78;;;1.59;99.12
2761;BME280;15420;48.636;9.798;2023-01-30T08:52:38;97039.38;;;1.60;98.92
2761;BME280;15420;48.636;9.798;2023-01-30T08:55:05;97048.84;;;1.63;99.14
2761;BME280;15420;48.636;9.798;2023-01-30T08:57:36;97052.44;;;1.67;99.32
2761;BME280;15420;48.636;9.798;2023-01-30T09:00:03;97045.78;;;1.69;99.54
2761;BME280;15420;48.636;9.798;2023-01-30T09:02:30;97056.13;;;1.72;99.78
2761;BME280;15420;48.636;9.798;2023-01-30T09:04:56;97041.00;;;1.73;99.09
2761;BME280;15420;48.636;9.798;2023-01-30T09:07:24;97030.22;;;1.77;99.86
2761;BME280;15420;48.636;9.798;2023-01-30T09:09:53;97025.31;;;1.80;100.00
2761;BME280;15420;48.636;9.798;2023-01-30T09:12:19;97022.16;;;1.84;99.90
2761;BME280;15420;48.636;9.798;2023-01-30T09:14:45;97000.44;;;1.89;100.00
2761;BME280;15420;48.636;9.798;2023-01-30T09:17:12;96971.03;;;1.93;99.87
2761;BME280;15420;48.636;9.798;2023-01-30T09:19:40;96961.91;;;1.96;100.00
2761;BME280;15420;48.636;9.798;2023-01-30T09:22:11;96958.66;;;1.99;100.00
2761;BME280;15420;48.636;9.798;2023-01-30T09:24:37;96953.75;;;2.02;100.00
2761;BME280;15420;48.636;9.798;2023-01-30T09:27:05;96962.44;;;2.06;100.00
2761;BME280;15420;48.636;9.798;2023-01-30T09:29:31;96964.22;;;2.08;100.00
2761;BME280;15420;48.636;9.798;2023-01-30T09:31:58;96954.25;;;2.11;100.00
2761;BME280;15420;48.636;9.798;2023-01-30T09:34:26;96964.66;;;2.16;100.00
2761;BME280;15420;48.636;9.798;2023-01-30T09:37:00;96960.78;;;2.22;100.00
2761;BME280;15420;48.636;9.798;2023-01-30T09:39:29;96961.84;;;2.26;100.00
2761;BME280;15420;48.636;9.798;2023-01-30T09:55:37;96927.28;;;2.60;100.00
2761;BME280;15420;48.636;9.798;2023-01-30T09:58:56;96911.66;;;2.69;100.00
2761;BME280;15420;48.636;9.798;2023-01-30T10:01:13;96908.56;;;2.75;100.00
2761;BME280;15420;48.636;9.798;2023-01-30T10:04:01;96919.03;;;2.81;100.00
2761;BME280;15420;48.636;9.798;2023-01-30T10:06:33;96912.53;;;2.86;100.00
2761;BME280;15420;48.636;9.798;2023-01-30T10:09:14;96902.75;;;2.93;100.00
2761;BME280;15420;48.636;9.798;2023-01-30T10:12:05;96887.09;;;3.02;100.00
2761;BME280;15420;48.636;9.798;2023-01-30T10:14:49;96888.13;;;3.06;100.00
2761;BME280;15420;48.636;9.798;2023-01-30T10:28:19;96855.00;;;3.40;100.00
2761;BME280;15420;48.636;9.798;2023-01-30T10:30:52;96866.31;;;3.45;100.00
2761;BME280;15420;48.636;9.798;2023-01-30T10:33:36;96875.34;;;3.56;100.00
2761;BME280;15420;48.636;9.798;2023-01-30T10:36:24;96858.75;;;3.64;100.00
2761;BME280;15420;48.636;9.798;2023-01-30T10:38:54;96876.88;;;3.70;100.00
2761;BME280;15420;48.636;9.798;2023-01-30T10:41:30;96862.91;;;3.80;100.00
2761;BME280;15420;48.636;9.798;2023-01-30T10:44:10;96852.28;;;3.88;100.00
2761;BME280;15420;48.636;9.798;2023-01-30T10:49:53;96872.69;;;4.06;100.00
2761;BME280;15420;48.636;9.798;2023-01-30T10:52:33;96877.19;;;4.12;100.00
2761;BME280;15420;48.636;9.798;2023-01-30T10:55:24;96874.91;;;4.18;100.00
2761;BME280;15420;48.636;9.798;2023-01-30T11:01:11;96860.31;;;4.33;100.00
2761;BME280;15420;48.636;9.798;2023-01-30T11:03:52;96865.56;;;4.36;100.00
2761;BME280;15420;48.636;9.798;2023-01-30T11:06:24;96850.38;;;4.39;100.00
2761;BME280;15420;48.636;9.798;2023-01-30T11:08:54;96846.22;;;4.41;100.00
2761;BME280;15420;48.636;9.798;2023-01-30T11:11:36;96850.66;;;4.45;100.00
2761;BME280;15420;48.636;9.798;2023-01-30T11:14:10;96857.66;;;4.49;99.81
2761;BME280;15420;48.636;9.798;2023-01-30T11:19:14;96877.66;;;4.59;100.00
2761;BME280;15420;48.636;9.798;2023-01-30T11:21:52;96869.34;;;4.64;99.50
2761;BME280;15420;48.636;9.798;2023-01-30T11:24:28;96863.59;;;4.68;100.00
2761;BME280;15420;48.636;9.798;2023-01-30T11:27:08;96839.06;;;4.71;100.00
2761;BME280;15420;48.636;9.798;2023-01-30T11:29:38;96838.47;;;4.77;99.48
2761;BME280;15420;48.636;9.798;2023-01-30T11:32:18;96843.78;;;4.81;99.59
2761;BME280;15420;48.636;9.798;2023-01-30T11:37:33;96851.97;;;4.93;100.00
2761;BME280;15420;48.636;9.798;2023-01-30T11:40:13;96838.53;;;4.98;99.98
2761;BME280;15420;48.636;9.798;2023-01-30T11:42:52;96849.63;;;4.98;100.00
2761;BME280;15420;48.636;9.798;2023-01-30T11:45:23;96854.97;;;5.04;99.88
2761;BME280;15420;48.636;9.798;2023-01-30T11:48:00;96849.19;;;5.08;99.67
2761;BME280;15420;48.636;9.798;2023-01-30T11:50:41;96846.72;;;5.10;99.93
2761;BME280;15420;48.636;9.798;2023-01-30T11:53:35;96860.69;;;5.18;99.92
2761;BME280;15420;48.636;9.798;2023-01-30T11:56:13;96860.69;;;5.18;99.66
2761;BME280;15420;48.636;9.798;2023-01-30T11:58:41;96859.88;;;5.19;99.54
2761;BME280;15420;48.636;9.798;2023-01-30T12:01:11;96858.22;;;5.21;99.46
2761;BME280;15420;48.636;9.798;2023-01-30T12:03:47;96855.06;;;5.26;99.54
2761;BME280;15420;48.636;9.798;2023-01-30T12:06:23;96846.53;;;5.26;99.43
2761;BME280;15420;48.636;9.798;2023-01-30T12:08:56;96851.56;;;5.24;99.79
2761;BME280;15420;48.636;9.798;2023-01-30T12:11:29;96849.00;;;5.24;99.62
2761;BME280;15420;48.636;9.798;2023-01-30T12:22:37;96826.16;;;5.28;100.00
2761;BME280;15420;48.636;9.798;2023-01-30T12:25:24;96826.03;;;5.24;100.00
2761;BME280;15420;48.636;9.798;2023-01-30T12:28:17;96819.50;;;5.31;100.00
2761;BME280;15420;48.636;9.798;2023-01-30T12:30:58;96814.88;;;5.22;100.00
2761;BME280;15420;48.636;9.798;2023-01-30T12:33:31;96829.31;;;5.22;100.00
2761;BME280;15420;48.636;9.798;2023-01-30T12:39:13;96830.31;;;5.25;100.00
2761;BME280;15420;48.636;9.798;2023-01-30T12:41:55;96834.56;;;5.25;100.00
2761;BME280;15420;48.636;9.798;2023-01-30T12:55:37;96838.81;;;5.24;100.00
2761;BME280;15420;48.636;9.798;2023-01-30T12:58:20;96840.41;;;5.22;100.00
2761;BME280;15420;48.636;9.798;2023-01-30T13:06:31;96841.22;;;5.21;100.00
2761;BME280;15420;48.636;9.798;2023-01-30T13:22:34;96853.63;;;5.12;100.00
2761;BME280;15420;48.636;9.798;2023-01-30T13:27:59;96866.41;;;5.12;100.00
2761;BME280;15420;48.636;9.798;2023-01-30T13:30:28;96873.06;;;5.09;100.00
2761;BME280;15420;48.636;9.798;2023-01-30T13:33:08;96862.91;;;5.10;100.00
2761;BME280;15420;48.636;9.798;2023-01-30T13:35:48;96875.47;;;5.06;100.00
2761;BME280;15420;48.636;9.798;2023-01-30T13:38:21;96886.44;;;5.03;100.00
2761;BME280;15420;48.636;9.798;2023-01-30T13:40:54;96883.94;;;5.05;100.00
2761;BME280;15420;48.636;9.798;2023-01-30T13:45:54;96888.84;;;5.00;100.00
2761;BME280;15420;48.636;9.798;2023-01-30T13:53:33;96898.66;;;4.91;100.00
2761;BME280;15420;48.636;9.798;2023-01-30T13:59:07;96901.88;;;4.87;100.00
2761;BME280;15420;48.636;9.798;2023-01-30T14:04:42;96911.06;;;4.83;100.00
2761;BME280;15420;48.636;9.798;2023-01-30T14:09:49;96915.97;;;4.79;100.00
2761;BME280;15420;48.636;9.798;2023-01-30T14:12:25;96915.03;;;4.77;100.00
2761;BME280;15420;48.636;9.798;2023-01-30T14:17:38;96906.28;;;4.72;100.00
2761;BME280;15420;48.636;9.798;2023-01-30T14:20:19;96902.13;;;4.74;100.00
2761;BME280;15420;48.636;9.798;2023-01-30T14:30:38;96915.34;;;4.65;100.00
2761;BME280;15420;48.636;9.798;2023-01-30T14:33:37;96942.63;;;4.66;100.00
2761;BME280;15420;48.636;9.798;2023-01-30T14:38:56;96940.72;;;4.62;100.00
2761;BME280;15420;48.636;9.798;2023-01-30T14:41:41;96943.06;;;4.57;100.00
2761;BME280;15420;48.636;9.798;2023-01-30T14:44:07;96952.47;;;4.58;100.00
2761;BME280;15420;48.636;9.798;2023-01-30T14:46:41;96957.03;;;4.66;100.00
2761;BME280;15420;48.636;9.798;2023-01-30T14:49:24;96970.41;;;4.60;100.00
2761;BME280;15420;48.636;9.798;2023-01-30T14:51:53;96981.25;;;4.56;100.00
2761;BME280;15420;48.636;9.798;2023-01-30T14:54:31;96975.28;;;4.55;100.00
2761;BME280;15420;48.636;9.798;2023-01-30T14:57:02;96980.25;;;4.52;100.00
2761;BME280;15420;48.636;9.798;2023-01-30T14:59:36;96988.69;;;4.51;100.00
2761;BME280;15420;48.636;9.798;2023-01-30T15:02:18;96995.53;;;4.52;100.00
2761;BME280;15420;48.636;9.798;2023-01-30T15:10:16;97002.84;;;4.45;100.00
2761;BME280;15420;48.636;9.798;2023-01-30T15:18:53;97025.56;;;4.40;100.00
2761;BME280;15420;48.636;9.798;2023-01-30T15:27:12;97027.41;;;4.43;100.00
2761;BME280;15420;48.636;9.798;2023-01-30T15:32:42;97036.34;;;4.35;100.00
2761;BME280;15420;48.636;9.798;2023-01-30T15:35:21;97046.63;;;4.36;100.00
2761;BME280;15420;48.636;9.798;2023-01-30T15:37:52;97055.88;;;4.34;100.00
2761;BME280;15420;48.636;9.798;2023-01-30T15:40:20;97042.25;;;4.34;100.00
2761;BME280;15420;48.636;9.798;2023-01-30T15:45:47;97059.38;;;4.36;100.00
2761;BME280;15420;48.636;9.798;2023-01-30T15:48:29;97064.31;;;4.33;100.00
2761;BME280;15420;48.636;9.798;2023-01-30T15:51:01;97066.94;;;4.35;100.00
2761;BME280;15420;48.636;9.798;2023-01-30T15:53:39;97079.78;;;4.36;100.00
2761;BME280;15420;48.636;9.798;2023-01-30T15:56:09;97071.09;;;4.33;100.00
2761;BME280;15420;48.636;9.798;2023-01-30T15:58:41;97064.25;;;4.32;100.00
2761;BME280;15420;48.636;9.798;2023-01-30T16:01:09;97078.69;;;4.31;100.00
2761;BME280;15420;48.636;9.798;2023-01-30T16:03:43;97078.69;;;4.31;100.00
2761;BME280;15420;48.636;9.798;2023-01-30T16:06:35;97079.63;;;4.33;100.00
2761;BME280;15420;48.636;9.798;2023-01-30T16:09:22;97073.56;;;4.31;100.00
2761;BME280;15420;48.636;9.798;2023-01-30T16:11:51;97080.34;;;4.31;100.00
2761;BME280;15420;48.636;9.798;2023-01-30T16:14:20;97078.59;;;4.30;100.00
2761;BME280;15420;48.636;9.798;2023-01-30T16:19:22;97075.09;;;4.27;100.00
2761;BME280;15420;48.636;9.798;2023-01-30T16:21:52;97072.47;;;4.26;100.00
2761;BME280;15420;48.636;9.798;2023-01-30T16:24:26;97085.88;;;4.22;100.00